sensor_id;sensor_type;location;lat;lon;timestamp;P1;durP1;ratioP1;P2;durP2;ratioP2
6527;SDS011;64597;42.664;23.256;2023-02-26T00:00:27;13.35;;;4.05;;
6527;SDS011;64597;42.664;23.256;2023-02-26T00:02:53;11.13;;;3.90;;
6527;SDS011;64597;42.664;23.256;2023-02-26T00:05:19;7.82;;;2.85;;
6527;SDS011;64597;42.664;23.256;2023-02-26T00:07:44;7.72;;;3.03;;
6527;SDS011;64597;42.664;23.256;2023-02-26T00:10:11;8.20;;;3.50;;
6527;SDS011;64597;42.664;23.256;2023-02-26T00:12:38;10.95;;;3.72;;
6527;SDS011;64597;42.664;23.256;2023-02-26T00:15:04;7.50;;;5.30;;
6527;SDS011;64597;42.664;23.256;2023-02-26T00:17:47;7.20;;;3.03;;
6527;SDS011;64597;42.664;23.256;2023-02-26T00:20:35;10.90;;;3.85;;
6527;SDS011;64597;42.664;23.256;2023-02-26T00:23:01;6.30;;;2.63;;
6527;SDS011;64597;42.664;23.256;2023-02-26T00:25:27;6.60;;;2.78;;
6527;SDS011;64597;42.664;23.256;2023-02-26T00:27:52;4.47;;;1.92;;
6527;SDS011;64597;42.664;23.256;2023-02-26T00:30:18;6.85;;;2.85;;
6527;SDS011;64597;42.664;23.256;2023-02-26T00:32:44;7.43;;;3.03;;
6527;SDS011;64597;42.664;23.256;2023-02-26T00:35:11;9.48;;;2.83;;
6527;SDS011;64597;42.664;23.256;2023-02-26T00:37:56;9.20;;;2.80;;
6527;SDS011;64597;42.664;23.256;2023-02-26T00:43:09;8.35;;;2.97;;
6527;SDS011;64597;42.664;23.256;2023-02-26T00:45:42;5.30;;;2.88;;
6527;SDS011;64597;42.664;23.256;2023-02-26T00:50:59;9.25;;;2.92;;
6527;SDS011;64597;42.664;23.256;2023-02-26T00:53:33;9.43;;;2.58;;
6527;SDS011;64597;42.664;23.256;2023-02-26T00:56:05;7.70;;;2.20;;
6527;SDS011;64597;42.664;23.256;2023-02-26T00:58:31;5.50;;;3.20;;
6527;SDS011;64597;42.664;23.256;2023-02-26T01:00:56;5.38;;;2.20;;
6527;SDS011;64597;42.664;23.256;2023-02-26T01:03:21;4.95;;;2.80;;
6527;SDS011;64597;42.664;23.256;2023-02-26T01:05:47;4.22;;;2.30;;
6527;SDS011;64597;42.664;23.256;2023-02-26T01:08:14;6.45;;;2.20;;
6527;SDS011;64597;42.664;23.256;2023-02-26T01:10:48;6.90;;;3.22;;
6527;SDS011;64597;42.664;23.256;2023-02-26T01:13:14;6.82;;;3.08;;
6527;SDS011;64597;42.664;23.256;2023-02-26T01:15:40;3.63;;;2.13;;
6527;SDS011;64597;42.664;23.256;2023-02-26T01:18:17;10.98;;;2.75;;
6527;SDS011;64597;42.664;23.256;2023-02-26T01:20:56;7.88;;;2.85;;
6527;SDS011;64597;42.664;23.256;2023-02-26T01:23:27;6.78;;;2.35;;
6527;SDS011;64597;42.664;23.256;2023-02-26T01:25:58;6.72;;;3.22;;
6527;SDS011;64597;42.664;23.256;2023-02-26T01:28:28;5.80;;;2.35;;
6527;SDS011;64597;42.664;23.256;2023-02-26T01:30:56;5.97;;;2.50;;
6527;SDS011;64597;42.664;23.256;2023-02-26T01:35:56;3.95;;;2.03;;
6527;SDS011;64597;42.664;23.256;2023-02-26T01:41:57;6.97;;;2.33;;
6527;SDS011;64597;42.664;23.256;2023-02-26T01:47:22;6.20;;;2.40;;
6527;SDS011;64597;42.664;23.256;2023-02-26T01:49:50;9.15;;;2.88;;
6527;SDS011;64597;42.664;23.256;2023-02-26T01:55:18;4.63;;;2.20;;
6527;SDS011;64597;42.664;23.256;2023-02-26T01:57:46;7.65;;;3.55;;
6527;SDS011;64597;42.664;23.256;2023-02-26T02:00:13;7.75;;;2.70;;
6527;SDS011;64597;42.664;23.256;2023-02-26T02:02:40;6.80;;;2.80;;
6527;SDS011;64597;42.664;23.256;2023-02-26T02:05:09;7.18;;;2.78;;
6527;SDS011;64597;42.664;23.256;2023-02-26T02:07:40;5.95;;;2.35;;
6527;SDS011;64597;42.664;23.256;2023-02-26T02:10:06;7.00;;;2.60;;
6527;SDS011;64597;42.664;23.256;2023-02-26T02:15:12;2.95;;;1.55;;
6527;SDS011;64597;42.664;23.256;2023-02-26T02:23:36;6.95;;;3.28;;
6527;SDS011;64597;42.664;23.256;2023-02-26T02:32:06;4.43;;;2.15;;
6527;SDS011;64597;42.664;23.256;2023-02-26T02:34:14;6.45;;;1.77;;
6527;SDS011;64597;42.664;23.256;2023-02-26T02:37:03;4.15;;;1.90;;
6527;SDS011;64597;42.664;23.256;2023-02-26T02:42:27;4.63;;;2.58;;
6527;SDS011;64597;42.664;23.256;2023-02-26T02:44:59;9.32;;;2.42;;
6527;SDS011;64597;42.664;23.256;2023-02-26T02:47:30;3.42;;;2.10;;
6527;SDS011;64597;42.664;23.256;2023-02-26T02:50:13;2.95;;;1.73;;
6527;SDS011;64597;42.664;23.256;2023-02-26T02:53:05;3.90;;;2.15;;
6527;SDS011;64597;42.664;23.256;2023-02-26T02:55:34;5.78;;;2.22;;
6527;SDS011;64597;42.664;23.256;2023-02-26T02:58:12;4.68;;;2.08;;
6527;SDS011;64597;42.664;23.256;2023-02-26T03:00:49;8.32;;;2.25;;
6527;SDS011;64597;42.664;23.256;2023-02-26T03:05:56;3.03;;;1.48;;
6527;SDS011;64597;42.664;23.256;2023-02-26T03:08:23;7.95;;;1.67;;
6527;SDS011;64597;42.664;23.256;2023-02-26T03:10:52;4.35;;;1.80;;
6527;SDS011;64597;42.664;23.256;2023-02-26T03:13:18;5.55;;;2.10;;
6527;SDS011;64597;42.664;23.256;2023-02-26T03:20:58;10.13;;;2.42;;
6527;SDS011;64597;42.664;23.256;2023-02-26T03:23:49;5.20;;;2.17;;
6527;SDS011;64597;42.664;23.256;2023-02-26T03:26:32;3.38;;;1.80;;
6527;SDS011;64597;42.664;23.256;2023-02-26T03:29:06;4.70;;;1.75;;
6527;SDS011;64597;42.664;23.256;2023-02-26T03:31:44;3.78;;;1.95;;
6527;SDS011;64597;42.664;23.256;2023-02-26T03:37:06;4.10;;;2.92;;
6527;SDS011;64597;42.664;23.256;2023-02-26T03:39:45;6.93;;;2.53;;
6527;SDS011;64597;42.664;23.256;2023-02-26T03:42:20;6.53;;;3.22;;
6527;SDS011;64597;42.664;23.256;2023-02-26T03:44:56;5.65;;;2.40;;
6527;SDS011;64597;42.664;23.256;2023-02-26T03:47:26;4.00;;;1.90;;
6527;SDS011;64597;42.664;23.256;2023-02-26T03:52:27;5.65;;;2.75;;
6527;SDS011;64597;42.664;23.256;2023-02-26T03:57:45;6.85;;;2.35;;
6527;SDS011;64597;42.664;23.256;2023-02-26T04:00:11;9.55;;;2.42;;
6527;SDS011;64597;42.664;23.256;2023-02-26T04:02:39;4.97;;;1.80;;
6527;SDS011;64597;42.664;23.256;2023-02-26T04:05:11;8.35;;;2.35;;
6527;SDS011;64597;42.664;23.256;2023-02-26T04:07:41;3.13;;;1.88;;
6527;SDS011;64597;42.664;23.256;2023-02-26T04:10:09;7.40;;;2.50;;
6527;SDS011;64597;42.664;23.256;2023-02-26T04:12:39;10.55;;;3.83;;
6527;SDS011;64597;42.664;23.256;2023-02-26T04:15:04;8.45;;;2.88;;
6527;SDS011;64597;42.664;23.256;2023-02-26T04:17:30;4.22;;;2.45;;
6527;SDS011;64597;42.664;23.256;2023-02-26T04:19:56;2.78;;;1.63;;
6527;SDS011;64597;42.664;23.256;2023-02-26T04:22:21;7.30;;;2.97;;
6527;SDS011;64597;42.664;23.256;2023-02-26T04:24:47;8.70;;;3.17;;
6527;SDS011;64597;42.664;23.256;2023-02-26T04:27:12;8.38;;;2.80;;
6527;SDS011;64597;42.664;23.256;2023-02-26T04:29:37;10.35;;;3.08;;
6527;SDS011;64597;42.664;23.256;2023-02-26T04:32:03;11.48;;;2.38;;
6527;SDS011;64597;42.664;23.256;2023-02-26T04:34:29;9.30;;;2.72;;
6527;SDS011;64597;42.664;23.256;2023-02-26T04:36:56;8.00;;;2.28;;
6527;SDS011;64597;42.664;23.256;2023-02-26T04:39:22;8.27;;;2.72;;
6527;SDS011;64597;42.664;23.256;2023-02-26T04:41:47;8.45;;;2.75;;
6527;SDS011;64597;42.664;23.256;2023-02-26T04:44:13;7.63;;;3.47;;
6527;SDS011;64597;42.664;23.256;2023-02-26T04:46:38;7.30;;;2.45;;
6527;SDS011;64597;42.664;23.256;2023-02-26T04:49:04;11.32;;;2.70;;
6527;SDS011;64597;42.664;23.256;2023-02-26T04:51:30;4.47;;;1.75;;
6527;SDS011;64597;42.664;23.256;2023-02-26T04:53:55;6.85;;;2.35;;
6527;SDS011;64597;42.664;23.256;2023-02-26T04:56:21;12.55;;;1.95;;
6527;SDS011;64597;42.664;23.256;2023-02-26T04:58:46;7.03;;;2.17;;
6527;SDS011;64597;42.664;23.256;2023-02-26T05:01:12;9.15;;;2.35;;
6527;SDS011;64597;42.664;23.256;2023-02-26T05:03:38;5.40;;;1.90;;
6527;SDS011;64597;42.664;23.256;2023-02-26T05:06:03;4.95;;;2.28;;
6527;SDS011;64597;42.664;23.256;2023-02-26T05:08:29;4.53;;;2.20;;
6527;SDS011;64597;42.664;23.256;2023-02-26T05:10:54;4.03;;;2.00;;
6527;SDS011;64597;42.664;23.256;2023-02-26T05:13:20;7.90;;;2.47;;
6527;SDS011;64597;42.664;23.256;2023-02-26T05:15:45;10.38;;;3.30;;
6527;SDS011;64597;42.664;23.256;2023-02-26T05:18:11;3.72;;;2.08;;
6527;SDS011;64597;42.664;23.256;2023-02-26T05:20:36;4.78;;;1.90;;
6527;SDS011;64597;42.664;23.256;2023-02-26T05:23:02;4.93;;;1.92;;
6527;SDS011;64597;42.664;23.256;2023-02-26T05:25:28;6.28;;;1.45;;
6527;SDS011;64597;42.664;23.256;2023-02-26T05:27:53;4.72;;;2.45;;
6527;SDS011;64597;42.664;23.256;2023-02-26T05:30:19;8.30;;;2.80;;
6527;SDS011;64597;42.664;23.256;2023-02-26T05:32:45;11.75;;;2.92;;
6527;SDS011;64597;42.664;23.256;2023-02-26T05:35:10;17.45;;;3.25;;
6527;SDS011;64597;42.664;23.256;2023-02-26T05:37:37;5.72;;;2.90;;
6527;SDS011;64597;42.664;23.256;2023-02-26T05:40:03;6.72;;;2.10;;
6527;SDS011;64597;42.664;23.256;2023-02-26T05:42:30;7.80;;;1.90;;
6527;SDS011;64597;42.664;23.256;2023-02-26T05:44:55;8.35;;;2.10;;
6527;SDS011;64597;42.664;23.256;2023-02-26T05:47:22;7.35;;;1.85;;
6527;SDS011;64597;42.664;23.256;2023-02-26T05:49:47;4.95;;;1.85;;
6527;SDS011;64597;42.664;23.256;2023-02-26T05:52:13;4.97;;;2.00;;
6527;SDS011;64597;42.664;23.256;2023-02-26T05:54:39;3.90;;;1.90;;
6527;SDS011;64597;42.664;23.256;2023-02-26T05:57:04;7.05;;;1.70;;
6527;SDS011;64597;42.664;23.256;2023-02-26T05:59:30;6.63;;;2.55;;
6527;SDS011;64597;42.664;23.256;2023-02-26T06:01:55;6.40;;;1.90;;
6527;SDS011;64597;42.664;23.256;2023-02-26T06:04:21;8.90;;;2.33;;
6527;SDS011;64597;42.664;23.256;2023-02-26T06:06:46;10.15;;;2.85;;
6527;SDS011;64597;42.664;23.256;2023-02-26T06:09:12;5.90;;;3.20;;
6527;SDS011;64597;42.664;23.256;2023-02-26T06:11:37;6.63;;;2.00;;
6527;SDS011;64597;42.664;23.256;2023-02-26T06:14:04;6.40;;;2.38;;
6527;SDS011;64597;42.664;23.256;2023-02-26T06:16:30;3.65;;;1.20;;
6527;SDS011;64597;42.664;23.256;2023-02-26T06:18:56;5.65;;;1.50;;
6527;SDS011;64597;42.664;23.256;2023-02-26T06:21:22;4.80;;;1.92;;
6527;SDS011;64597;42.664;23.256;2023-02-26T06:23:48;3.05;;;1.30;;
6527;SDS011;64597;42.664;23.256;2023-02-26T06:26:13;10.98;;;2.58;;
6527;SDS011;64597;42.664;23.256;2023-02-26T06:28:39;8.25;;;2.25;;
6527;SDS011;64597;42.664;23.256;2023-02-26T06:31:04;12.40;;;2.75;;
6527;SDS011;64597;42.664;23.256;2023-02-26T06:33:30;8.50;;;2.22;;
6527;SDS011;64597;42.664;23.256;2023-02-26T06:35:55;10.57;;;2.92;;
6527;SDS011;64597;42.664;23.256;2023-02-26T06:38:23;7.97;;;3.20;;
6527;SDS011;64597;42.664;23.256;2023-02-26T06:40:48;5.65;;;2.03;;
6527;SDS011;64597;42.664;23.256;2023-02-26T06:43:14;6.15;;;1.95;;
6527;SDS011;64597;42.664;23.256;2023-02-26T06:45:39;14.27;;;2.25;;
6527;SDS011;64597;42.664;23.256;2023-02-26T06:48:05;9.98;;;2.75;;
6527;SDS011;64597;42.664;23.256;2023-02-26T06:50:31;7.47;;;1.98;;
6527;SDS011;64597;42.664;23.256;2023-02-26T06:52:56;6.45;;;1.80;;
6527;SDS011;64597;42.664;23.256;2023-02-26T06:55:22;11.77;;;2.25;;
6527;SDS011;64597;42.664;23.256;2023-02-26T06:57:51;9.00;;;2.03;;
6527;SDS011;64597;42.664;23.256;2023-02-26T07:00:20;12.40;;;2.35;;
6527;SDS011;64597;42.664;23.256;2023-02-26T07:02:46;4.78;;;2.00;;
6527;SDS011;64597;42.664;23.256;2023-02-26T07:05:11;8.00;;;2.00;;
6527;SDS011;64597;42.664;23.256;2023-02-26T07:07:37;6.35;;;2.40;;
6527;SDS011;64597;42.664;23.256;2023-02-26T07:10:03;9.13;;;2.13;;
6527;SDS011;64597;42.664;23.256;2023-02-26T07:12:29;13.07;;;2.30;;
6527;SDS011;64597;42.664;23.256;2023-02-26T07:14:54;5.75;;;2.58;;
6527;SDS011;64597;42.664;23.256;2023-02-26T07:17:20;6.32;;;2.00;;
6527;SDS011;64597;42.664;23.256;2023-02-26T07:19:46;7.82;;;2.40;;
6527;SDS011;64597;42.664;23.256;2023-02-26T07:22:12;8.85;;;2.63;;
6527;SDS011;64597;42.664;23.256;2023-02-26T07:24:39;8.50;;;2.10;;
6527;SDS011;64597;42.664;23.256;2023-02-26T07:27:05;8.95;;;2.40;;
6527;SDS011;64597;42.664;23.256;2023-02-26T07:29:30;8.85;;;2.50;;
6527;SDS011;64597;42.664;23.256;2023-02-26T07:31:56;10.55;;;2.83;;
6527;SDS011;64597;42.664;23.256;2023-02-26T07:34:21;9.23;;;2.40;;
6527;SDS011;64597;42.664;23.256;2023-02-26T07:36:46;7.43;;;2.42;;
6527;SDS011;64597;42.664;23.256;2023-02-26T07:39:12;12.40;;;2.42;;
6527;SDS011;64597;42.664;23.256;2023-02-26T07:41:37;8.00;;;1.98;;
6527;SDS011;64597;42.664;23.256;2023-02-26T07:44:03;3.95;;;2.42;;
6527;SDS011;64597;42.664;23.256;2023-02-26T07:46:28;4.60;;;1.67;;
6527;SDS011;64597;42.664;23.256;2023-02-26T07:48:54;7.63;;;2.28;;
6527;SDS011;64597;42.664;23.256;2023-02-26T07:51:19;6.70;;;2.08;;
6527;SDS011;64597;42.664;23.256;2023-02-26T07:53:44;8.98;;;2.13;;
6527;SDS011;64597;42.664;23.256;2023-02-26T07:56:10;6.80;;;1.83;;
6527;SDS011;64597;42.664;23.256;2023-02-26T07:58:35;7.97;;;2.22;;
6527;SDS011;64597;42.664;23.256;2023-02-26T08:01:01;10.43;;;3.08;;
6527;SDS011;64597;42.664;23.256;2023-02-26T08:03:26;8.55;;;2.70;;
6527;SDS011;64597;42.664;23.256;2023-02-26T08:05:52;5.03;;;2.58;;
6527;SDS011;64597;42.664;23.256;2023-02-26T08:08:17;6.15;;;2.42;;
6527;SDS011;64597;42.664;23.256;2023-02-26T08:10:43;9.60;;;2.80;;
6527;SDS011;64597;42.664;23.256;2023-02-26T08:13:08;7.15;;;2.05;;
6527;SDS011;64597;42.664;23.256;2023-02-26T08:15:34;13.32;;;3.22;;
6527;SDS011;64597;42.664;23.256;2023-02-26T08:17:59;12.75;;;3.53;;
6527;SDS011;64597;42.664;23.256;2023-02-26T08:20:24;9.15;;;2.70;;
6527;SDS011;64597;42.664;23.256;2023-02-26T08:22:50;12.48;;;3.30;;
6527;SDS011;64597;42.664;23.256;2023-02-26T08:25:16;13.43;;;2.78;;
6527;SDS011;64597;42.664;23.256;2023-02-26T08:27:42;10.32;;;2.65;;
6527;SDS011;64597;42.664;23.256;2023-02-26T08:30:10;10.23;;;2.25;;
6527;SDS011;64597;42.664;23.256;2023-02-26T08:32:37;8.95;;;2.47;;
6527;SDS011;64597;42.664;23.256;2023-02-26T08:35:04;5.72;;;2.47;;
6527;SDS011;64597;42.664;23.256;2023-02-26T08:37:30;10.18;;;2.67;;
6527;SDS011;64597;42.664;23.256;2023-02-26T08:39:55;10.82;;;3.13;;
6527;SDS011;64597;42.664;23.256;2023-02-26T08:42:21;12.48;;;2.67;;
6527;SDS011;64597;42.664;23.256;2023-02-26T08:44:46;8.18;;;2.65;;
6527;SDS011;64597;42.664;23.256;2023-02-26T08:47:12;11.68;;;3.38;;
6527;SDS011;64597;42.664;23.256;2023-02-26T08:49:37;11.45;;;2.65;;
6527;SDS011;64597;42.664;23.256;2023-02-26T08:52:03;8.93;;;2.50;;
6527;SDS011;64597;42.664;23.256;2023-02-26T08:54:29;9.32;;;2.47;;
6527;SDS011;64597;42.664;23.256;2023-02-26T08:56:54;6.78;;;3.13;;
6527;SDS011;64597;42.664;23.256;2023-02-26T08:59:22;3.45;;;1.60;;
6527;SDS011;64597;42.664;23.256;2023-02-26T09:01:48;6.88;;;2.05;;
6527;SDS011;64597;42.664;23.256;2023-02-26T09:04:13;10.98;;;3.17;;
6527;SDS011;64597;42.664;23.256;2023-02-26T09:06:39;9.10;;;2.38;;
6527;SDS011;64597;42.664;23.256;2023-02-26T09:09:04;5.70;;;2.63;;
6527;SDS011;64597;42.664;23.256;2023-02-26T09:11:29;7.82;;;2.60;;
6527;SDS011;64597;42.664;23.256;2023-02-26T09:13:56;5.95;;;2.30;;
6527;SDS011;64597;42.664;23.256;2023-02-26T09:16:27;8.88;;;2.03;;
6527;SDS011;64597;42.664;23.256;2023-02-26T09:18:53;5.63;;;1.83;;
6527;SDS011;64597;42.664;23.256;2023-02-26T09:21:19;3.67;;;1.88;;
6527;SDS011;64597;42.664;23.256;2023-02-26T09:23:44;5.65;;;2.50;;
6527;SDS011;64597;42.664;23.256;2023-02-26T09:26:10;8.25;;;2.30;;
6527;SDS011;64597;42.664;23.256;2023-02-26T09:28:35;7.32;;;2.22;;
6527;SDS011;64597;42.664;23.256;2023-02-26T09:31:01;17.75;;;4.43;;
6527;SDS011;64597;42.664;23.256;2023-02-26T09:33:26;11.60;;;5.18;;
6527;SDS011;64597;42.664;23.256;2023-02-26T09:35:52;15.68;;;6.50;;
6527;SDS011;64597;42.664;23.256;2023-02-26T09:38:17;17.63;;;7.30;;
6527;SDS011;64597;42.664;23.256;2023-02-26T09:40:48;15.38;;;6.35;;
6527;SDS011;64597;42.664;23.256;2023-02-26T09:45:49;15.55;;;5.10;;
6527;SDS011;64597;42.664;23.256;2023-02-26T09:48:16;15.13;;;6.60;;
6527;SDS011;64597;42.664;23.256;2023-02-26T09:50:45;12.55;;;5.18;;
6527;SDS011;64597;42.664;23.256;2023-02-26T09:53:26;13.73;;;5.32;;
6527;SDS011;64597;42.664;23.256;2023-02-26T09:56:12;12.82;;;5.13;;
6527;SDS011;64597;42.664;23.256;2023-02-26T09:58:45;14.77;;;4.28;;
6527;SDS011;64597;42.664;23.256;2023-02-26T10:14:22;12.55;;;3.67;;
6527;SDS011;64597;42.664;23.256;2023-02-26T10:16:55;12.32;;;3.33;;
6527;SDS011;64597;42.664;23.256;2023-02-26T10:19:28;10.35;;;3.38;;
6527;SDS011;64597;42.664;23.256;2023-02-26T10:22:19;6.93;;;2.75;;
6527;SDS011;64597;42.664;23.256;2023-02-26T10:24:51;10.10;;;3.35;;
6527;SDS011;64597;42.664;23.256;2023-02-26T10:27:47;7.28;;;2.80;;
6527;SDS011;64597;42.664;23.256;2023-02-26T10:39:31;10.18;;;3.50;;
6527;SDS011;64597;42.664;23.256;2023-02-26T10:42:09;10.13;;;3.88;;
6527;SDS011;64597;42.664;23.256;2023-02-26T10:47:35;10.25;;;3.00;;
6527;SDS011;64597;42.664;23.256;2023-02-26T10:50:18;11.85;;;3.45;;
6527;SDS011;64597;42.664;23.256;2023-02-26T10:52:46;8.75;;;2.90;;
6527;SDS011;64597;42.664;23.256;2023-02-26T10:57:49;11.60;;;3.53;;
6527;SDS011;64597;42.664;23.256;2023-02-26T11:00:38;8.13;;;3.30;;
6527;SDS011;64597;42.664;23.256;2023-02-26T11:03:06;11.63;;;3.00;;
6527;SDS011;64597;42.664;23.256;2023-02-26T11:05:35;13.27;;;4.03;;
6527;SDS011;64597;42.664;23.256;2023-02-26T11:08:44;6.95;;;3.55;;
6527;SDS011;64597;42.664;23.256;2023-02-26T11:10:57;8.52;;;2.97;;
6527;SDS011;64597;42.664;23.256;2023-02-26T11:13:28;9.20;;;3.33;;
6527;SDS011;64597;42.664;23.256;2023-02-26T11:15:56;12.35;;;3.53;;
6527;SDS011;64597;42.664;23.256;2023-02-26T11:18:44;10.27;;;4.57;;
6527;SDS011;64597;42.664;23.256;2023-02-26T11:21:18;4.47;;;2.55;;
6527;SDS011;64597;42.664;23.256;2023-02-26T11:23:46;9.63;;;3.72;;
6527;SDS011;64597;42.664;23.256;2023-02-26T11:26:17;8.15;;;3.17;;
6527;SDS011;64597;42.664;23.256;2023-02-26T11:28:44;6.82;;;3.28;;
6527;SDS011;64597;42.664;23.256;2023-02-26T11:31:14;10.13;;;3.55;;
6527;SDS011;64597;42.664;23.256;2023-02-26T11:33:49;6.78;;;2.60;;
6527;SDS011;64597;42.664;23.256;2023-02-26T11:36:18;8.88;;;3.63;;
6527;SDS011;64597;42.664;23.256;2023-02-26T11:38:55;9.70;;;2.30;;
6527;SDS011;64597;42.664;23.256;2023-02-26T11:41:41;7.95;;;3.25;;
6527;SDS011;64597;42.664;23.256;2023-02-26T11:44:11;6.13;;;1.75;;
6527;SDS011;64597;42.664;23.256;2023-02-26T11:46:49;10.98;;;2.25;;
6527;SDS011;64597;42.664;23.256;2023-02-26T11:49:18;10.55;;;4.20;;
6527;SDS011;64597;42.664;23.256;2023-02-26T11:51:47;8.07;;;3.08;;
6527;SDS011;64597;42.664;23.256;2023-02-26T11:54:26;7.80;;;3.30;;
6527;SDS011;64597;42.664;23.256;2023-02-26T11:57:00;9.30;;;2.67;;
6527;SDS011;64597;42.664;23.256;2023-02-26T11:59:47;8.20;;;3.38;;
6527;SDS011;64597;42.664;23.256;2023-02-26T12:02:14;8.73;;;2.53;;
6527;SDS011;64597;42.664;23.256;2023-02-26T12:04:44;11.48;;;2.88;;
6527;SDS011;64597;42.664;23.256;2023-02-26T12:07:13;13.15;;;3.28;;
6527;SDS011;64597;42.664;23.256;2023-02-26T12:09:39;6.43;;;3.08;;
6527;SDS011;64597;42.664;23.256;2023-02-26T12:21:17;9.98;;;2.28;;
6527;SDS011;64597;42.664;23.256;2023-02-26T12:23:35;7.03;;;2.90;;
6527;SDS011;64597;42.664;23.256;2023-02-26T12:56:40;12.93;;;3.38;;
6527;SDS011;64597;42.664;23.256;2023-02-26T12:59:16;13.93;;;3.25;;
6527;SDS011;64597;42.664;23.256;2023-02-26T13:02:12;12.15;;;3.63;;
6527;SDS011;64597;42.664;23.256;2023-02-26T13:13:29;9.32;;;3.30;;
6527;SDS011;64597;42.664;23.256;2023-02-26T13:21:40;10.88;;;3.00;;
6527;SDS011;64597;42.664;23.256;2023-02-26T13:24:11;7.80;;;2.72;;
6527;SDS011;64597;42.664;23.256;2023-02-26T13:26:45;8.48;;;3.20;;
6527;SDS011;64597;42.664;23.256;2023-02-26T13:29:20;7.00;;;3.42;;
6527;SDS011;64597;42.664;23.256;2023-02-26T13:32:07;11.05;;;3.05;;
6527;SDS011;64597;42.664;23.256;2023-02-26T13:48:31;13.70;;;4.38;;
6527;SDS011;64597;42.664;23.256;2023-02-26T13:51:55;11.73;;;2.85;;
6527;SDS011;64597;42.664;23.256;2023-02-26T13:54:06;15.93;;;3.80;;
6527;SDS011;64597;42.664;23.256;2023-02-26T13:57:05;6.47;;;2.90;;
6527;SDS011;64597;42.664;23.256;2023-02-26T13:59:37;6.30;;;2.42;;
6527;SDS011;64597;42.664;23.256;2023-02-26T14:04:59;9.65;;;4.00;;
6527;SDS011;64597;42.664;23.256;2023-02-26T14:10:23;12.63;;;3.85;;
6527;SDS011;64597;42.664;23.256;2023-02-26T14:13:14;11.50;;;2.95;;
6527;SDS011;64597;42.664;23.256;2023-02-26T14:23:47;10.15;;;4.38;;
6527;SDS011;64597;42.664;23.256;2023-02-26T14:26:15;8.95;;;4.00;;
6527;SDS011;64597;42.664;23.256;2023-02-26T14:28:57;13.00;;;3.70;;
6527;SDS011;64597;42.664;23.256;2023-02-26T14:34:42;17.02;;;6.28;;
6527;SDS011;64597;42.664;23.256;2023-02-26T14:37:16;20.13;;;8.48;;
6527;SDS011;64597;42.664;23.256;2023-02-26T14:42:14;22.63;;;7.85;;
6527;SDS011;64597;42.664;23.256;2023-02-26T14:44:49;19.05;;;6.25;;
6527;SDS011;64597;42.664;23.256;2023-02-26T14:47:20;16.38;;;6.13;;
6527;SDS011;64597;42.664;23.256;2023-02-26T14:49:46;16.20;;;5.95;;
6527;SDS011;64597;42.664;23.256;2023-02-26T14:55:22;17.20;;;6.07;;
6527;SDS011;64597;42.664;23.256;2023-02-26T15:04:18;21.95;;;9.07;;
6527;SDS011;64597;42.664;23.256;2023-02-26T15:20:24;10.75;;;3.97;;
6527;SDS011;64597;42.664;23.256;2023-02-26T15:25:51;10.68;;;3.67;;
6527;SDS011;64597;42.664;23.256;2023-02-26T15:30:47;9.25;;;3.90;;
6527;SDS011;64597;42.664;23.256;2023-02-26T15:33:13;9.27;;;3.15;;
6527;SDS011;64597;42.664;23.256;2023-02-26T15:35:42;10.23;;;3.80;;
6527;SDS011;64597;42.664;23.256;2023-02-26T15:38:09;10.70;;;3.97;;
6527;SDS011;64597;42.664;23.256;2023-02-26T15:40:35;12.32;;;4.00;;
6527;SDS011;64597;42.664;23.256;2023-02-26T15:43:02;9.20;;;3.75;;
6527;SDS011;64597;42.664;23.256;2023-02-26T15:48:12;6.22;;;3.22;;
6527;SDS011;64597;42.664;23.256;2023-02-26T15:50:41;13.45;;;4.85;;
6527;SDS011;64597;42.664;23.256;2023-02-26T15:53:11;10.60;;;4.53;;
6527;SDS011;64597;42.664;23.256;2023-02-26T15:55:49;12.45;;;5.40;;
6527;SDS011;64597;42.664;23.256;2023-02-26T15:58:52;8.52;;;4.10;;
6527;SDS011;64597;42.664;23.256;2023-02-26T16:01:23;14.20;;;6.88;;
6527;SDS011;64597;42.664;23.256;2023-02-26T16:03:51;11.65;;;6.43;;
6527;SDS011;64597;42.664;23.256;2023-02-26T16:06:28;9.30;;;5.00;;
6527;SDS011;64597;42.664;23.256;2023-02-26T16:08:58;11.70;;;6.47;;
6527;SDS011;64597;42.664;23.256;2023-02-26T16:11:25;15.40;;;7.75;;
6527;SDS011;64597;42.664;23.256;2023-02-26T16:13:57;13.10;;;6.97;;
6527;SDS011;64597;42.664;23.256;2023-02-26T16:16:25;13.07;;;7.30;;
6527;SDS011;64597;42.664;23.256;2023-02-26T16:18:59;13.35;;;6.80;;
6527;SDS011;64597;42.664;23.256;2023-02-26T16:21:35;14.10;;;7.45;;
6527;SDS011;64597;42.664;23.256;2023-02-26T16:24:04;14.18;;;7.85;;
6527;SDS011;64597;42.664;23.256;2023-02-26T16:26:40;13.75;;;7.32;;
6527;SDS011;64597;42.664;23.256;2023-02-26T16:29:28;12.00;;;6.75;;
6527;SDS011;64597;42.664;23.256;2023-02-26T16:32:00;12.13;;;5.72;;
6527;SDS011;64597;42.664;23.256;2023-02-26T16:37:08;12.82;;;6.78;;
6527;SDS011;64597;42.664;23.256;2023-02-26T16:42:43;10.48;;;4.80;;
6527;SDS011;64597;42.664;23.256;2023-02-26T16:48:02;14.23;;;5.30;;
6527;SDS011;64597;42.664;23.256;2023-02-26T16:50:34;13.40;;;5.57;;
6527;SDS011;64597;42.664;23.256;2023-02-26T16:55:37;9.32;;;3.92;;
6527;SDS011;64597;42.664;23.256;2023-02-26T16:58:05;11.50;;;5.47;;
6527;SDS011;64597;42.664;23.256;2023-02-26T17:00:33;13.32;;;5.85;;
6527;SDS011;64597;42.664;23.256;2023-02-26T17:03:20;10.00;;;5.57;;
6527;SDS011;64597;42.664;23.256;2023-02-26T17:05:52;13.15;;;6.97;;
6527;SDS011;64597;42.664;23.256;2023-02-26T17:10:54;15.40;;;5.85;;
6527;SDS011;64597;42.664;23.256;2023-02-26T17:13:31;16.00;;;5.85;;
6527;SDS011;64597;42.664;23.256;2023-02-26T17:15:58;18.80;;;6.18;;
6527;SDS011;64597;42.664;23.256;2023-02-26T17:18:26;16.55;;;7.80;;
6527;SDS011;64597;42.664;23.256;2023-02-26T17:20:51;14.90;;;6.53;;
6527;SDS011;64597;42.664;23.256;2023-02-26T17:23:17;12.85;;;6.78;;
6527;SDS011;64597;42.664;23.256;2023-02-26T17:25:47;16.73;;;5.07;;
6527;SDS011;64597;42.664;23.256;2023-02-26T17:28:25;15.20;;;5.90;;
6527;SDS011;64597;42.664;23.256;2023-02-26T17:30:52;10.90;;;4.38;;
6527;SDS011;64597;42.664;23.256;2023-02-26T17:33:18;15.75;;;4.63;;
6527;SDS011;64597;42.664;23.256;2023-02-26T17:35:45;15.15;;;4.70;;
6527;SDS011;64597;42.664;23.256;2023-02-26T17:38:11;11.40;;;4.53;;
6527;SDS011;64597;42.664;23.256;2023-02-26T17:40:39;11.63;;;4.70;;
6527;SDS011;64597;42.664;23.256;2023-02-26T17:43:05;11.40;;;4.18;;
6527;SDS011;64597;42.664;23.256;2023-02-26T17:45:33;14.50;;;5.53;;
6527;SDS011;64597;42.664;23.256;2023-02-26T17:47:59;6.85;;;3.88;;
6527;SDS011;64597;42.664;23.256;2023-02-26T17:50:42;11.32;;;4.20;;
6527;SDS011;64597;42.664;23.256;2023-02-26T17:53:19;10.80;;;3.92;;
6527;SDS011;64597;42.664;23.256;2023-02-26T17:55:46;9.73;;;4.13;;
6527;SDS011;64597;42.664;23.256;2023-02-26T17:58:16;10.18;;;4.60;;
6527;SDS011;64597;42.664;23.256;2023-02-26T18:00:46;11.55;;;4.82;;
6527;SDS011;64597;42.664;23.256;2023-02-26T18:03:16;14.10;;;4.35;;
6527;SDS011;64597;42.664;23.256;2023-02-26T18:05:42;9.27;;;3.63;;
6527;SDS011;64597;42.664;23.256;2023-02-26T18:08:17;12.00;;;4.10;;
6527;SDS011;64597;42.664;23.256;2023-02-26T18:10:45;7.60;;;3.78;;
6527;SDS011;64597;42.664;23.256;2023-02-26T18:13:11;12.85;;;4.20;;
6527;SDS011;64597;42.664;23.256;2023-02-26T18:15:36;11.75;;;3.80;;
6527;SDS011;64597;42.664;23.256;2023-02-26T18:18:02;11.23;;;4.60;;
6527;SDS011;64597;42.664;23.256;2023-02-26T18:20:30;15.93;;;7.28;;
6527;SDS011;64597;42.664;23.256;2023-02-26T18:22:55;19.05;;;7.07;;
6527;SDS011;64597;42.664;23.256;2023-02-26T18:25:22;17.27;;;7.45;;
6527;SDS011;64597;42.664;23.256;2023-02-26T18:27:51;19.65;;;10.05;;
6527;SDS011;64597;42.664;23.256;2023-02-26T18:30:26;18.23;;;8.35;;